Terminal Aerodrome Forecast
Issued by NWS Wilmington, OH

Current Version | Previous Version | Text Only | Print | Product List | Glossary Off
Versions: 1 2 3 4 5 6 7 8 9 10 11 12 13 14 15 16 17 18 19 20 21 22 23 24 25

317
FTUS41 KILN 251456 AAA
TAFCVG
TAF AMD
KCVG 251456Z 2515/2618 26014G24KT P6SM OVC040
     FM251600 26014G25KT P6SM -SHSN OVC025
     FM251800 27014G25KT P6SM OVC035
     FM252300 27012KT P6SM BKN050
     FM260300 28010KT P6SM SCT050
     FM260600 27006KT P6SM SCT250=

USA.gov is the U.S. government's official web portal to all federal, state and local government web resources and services.